createdAt,value
2019-05-20T00:01:08.390Z,16.68
2019-05-20T00:03:36.845Z,16.80
2019-05-20T00:06:05.340Z,16.77
2019-05-20T00:08:33.804Z,16.79
2019-05-20T00:11:02.268Z,16.63
2019-05-20T00:13:30.693Z,16.49
2019-05-20T00:15:59.113Z,16.51
2019-05-20T00:18:27.580Z,16.65
2019-05-20T00:20:56.067Z,16.66
2019-05-20T00:23:24.526Z,16.56
2019-05-20T00:25:52.952Z,16.73
2019-05-20T00:28:21.400Z,16.69
2019-05-20T00:30:49.838Z,16.68
2019-05-20T00:33:18.299Z,16.62
2019-05-20T00:35:46.722Z,16.70
2019-05-20T00:38:15.183Z,17.04
2019-05-20T00:40:43.631Z,16.93
2019-05-20T00:43:12.069Z,16.91
2019-05-20T00:45:40.521Z,16.53
2019-05-20T00:48:08.946Z,16.64
2019-05-20T00:50:37.395Z,16.65
2019-05-20T00:53:05.914Z,16.38
2019-05-20T00:55:34.589Z,16.19
2019-05-20T00:58:03.046Z,16.32
2019-05-20T01:00:32.064Z,16.40
2019-05-20T01:03:00.504Z,16.51
2019-05-20T01:05:28.960Z,16.47
2019-05-20T01:07:57.449Z,16.66
2019-05-20T01:10:25.999Z,16.87
2019-05-20T01:12:54.386Z,16.61
2019-05-20T01:15:22.974Z,16.66
2019-05-20T01:17:51.415Z,16.56
2019-05-20T01:20:19.866Z,16.78
2019-05-20T01:22:48.336Z,16.79
2019-05-20T01:25:16.816Z,16.86
2019-05-20T01:27:45.246Z,16.66
2019-05-20T01:30:14.164Z,16.88
2019-05-20T01:32:42.582Z,16.86
2019-05-20T01:35:11.483Z,16.85
2019-05-20T01:37:39.917Z,16.85
2019-05-20T01:40:08.814Z,16.75
2019-05-20T01:42:37.260Z,16.76
2019-05-20T01:45:06.128Z,16.59
2019-05-20T01:47:34.567Z,16.55
2019-05-20T01:50:03.888Z,16.44
2019-05-20T01:52:32.324Z,16.27
2019-05-20T01:55:00.770Z,16.28
2019-05-20T01:57:29.205Z,16.38
2019-05-20T01:59:57.669Z,16.62
2019-05-20T02:02:26.131Z,16.52
2019-05-20T02:04:54.576Z,16.49
2019-05-20T02:07:23.494Z,16.56
2019-05-20T02:09:51.939Z,16.40
2019-05-20T02:12:20.399Z,16.21
2019-05-20T02:14:59.478Z,15.90
2019-05-20T02:17:27.933Z,16.53
2019-05-20T02:19:56.358Z,16.52
2019-05-20T02:22:24.833Z,16.59
2019-05-20T02:24:53.278Z,16.59
2019-05-20T02:27:21.759Z,16.57
2019-05-20T02:29:50.271Z,16.63
2019-05-20T02:32:18.726Z,16.69
2019-05-20T02:34:47.170Z,16.74
2019-05-20T02:37:15.616Z,16.51
2019-05-20T02:39:44.060Z,16.45
2019-05-20T02:42:12.528Z,16.31
2019-05-20T02:44:40.971Z,16.35
2019-05-20T02:47:09.400Z,16.68
2019-05-20T02:49:37.821Z,16.81
2019-05-20T02:52:06.263Z,16.59
2019-05-20T02:54:34.689Z,16.47
2019-05-20T02:57:03.136Z,16.40
2019-05-20T02:59:31.598Z,16.53
2019-05-20T03:02:00.058Z,16.56
2019-05-20T03:04:28.506Z,16.57
2019-05-20T03:06:56.962Z,16.54
2019-05-20T03:09:25.461Z,16.66
2019-05-20T03:11:53.915Z,16.52
2019-05-20T03:14:22.331Z,16.65
2019-05-20T03:16:50.804Z,16.65
2019-05-20T03:19:19.245Z,16.51
2019-05-20T03:21:47.703Z,16.78
2019-05-20T03:24:16.168Z,16.72
2019-05-20T03:26:44.727Z,16.68
2019-05-20T03:29:13.491Z,16.84
2019-05-20T03:31:41.957Z,16.84
2019-05-20T03:34:38.719Z,16.78
2019-05-20T03:36:42.055Z,16.84
2019-05-20T03:39:10.500Z,16.66
2019-05-20T03:41:38.905Z,16.81
2019-05-20T03:44:07.365Z,16.89
2019-05-20T03:46:35.806Z,17.04
2019-05-20T03:49:04.259Z,16.58
2019-05-20T03:51:32.685Z,16.31
2019-05-20T03:54:01.141Z,16.74
2019-05-20T03:56:29.589Z,16.42
2019-05-20T03:58:58.061Z,16.61
2019-05-20T04:01:26.491Z,16.38
2019-05-20T04:03:54.934Z,16.59
2019-05-20T04:06:23.372Z,16.36
2019-05-20T04:08:51.829Z,16.56
2019-05-20T04:11:20.279Z,16.63
2019-05-20T04:13:48.735Z,16.74
2019-05-20T04:16:17.188Z,16.79
2019-05-20T04:18:45.655Z,16.60
2019-05-20T04:21:14.088Z,16.77
2019-05-20T04:23:42.652Z,16.44
2019-05-20T04:26:11.092Z,16.58
2019-05-20T04:28:39.527Z,16.36
2019-05-20T04:31:07.997Z,16.49
2019-05-20T04:33:36.520Z,16.69
2019-05-20T04:36:04.957Z,16.79
2019-05-20T04:38:33.424Z,16.71
2019-05-20T04:41:01.858Z,16.93
2019-05-20T04:43:30.345Z,16.74
2019-05-20T04:45:58.770Z,16.84
2019-05-20T04:48:27.250Z,16.88
2019-05-20T04:50:55.684Z,16.79
2019-05-20T04:53:24.144Z,16.91
2019-05-20T04:55:52.603Z,16.99
2019-05-20T04:58:21.058Z,16.75
2019-05-20T05:00:54.980Z,16.73
2019-05-20T05:03:23.782Z,16.80
2019-05-20T05:05:59.567Z,16.19
2019-05-20T05:08:28.009Z,16.59
2019-05-20T05:10:59.693Z,16.66
2019-05-20T05:13:28.153Z,16.97
2019-05-20T05:15:56.774Z,16.75
2019-05-20T05:18:25.624Z,16.97
2019-05-20T05:20:54.202Z,17.10
2019-05-20T05:23:24.201Z,16.82
2019-05-20T05:25:54.456Z,17.04
2019-05-20T05:28:22.953Z,16.89
2019-05-20T05:30:51.388Z,16.87
2019-05-20T05:33:19.911Z,16.69
2019-05-20T05:35:53.237Z,17.12
2019-05-20T05:38:18.651Z,16.84
2019-05-20T05:40:47.082Z,17.21
2019-05-20T05:43:15.545Z,17.10
2019-05-20T05:45:44.004Z,17.16
2019-05-20T05:48:12.524Z,16.93
2019-05-20T05:50:41.034Z,16.92
2019-05-20T05:53:09.540Z,16.52
2019-05-20T05:55:38.065Z,16.57
2019-05-20T05:58:08.750Z,16.48
2019-05-20T06:00:36.675Z,16.51
2019-05-20T06:03:05.274Z,16.39
2019-05-20T06:05:33.996Z,16.67
2019-05-20T06:08:02.477Z,16.28
2019-05-20T06:10:30.954Z,16.83
2019-05-20T06:12:59.391Z,17.06
2019-05-20T06:15:27.845Z,16.81
2019-05-20T06:17:56.317Z,17.16
2019-05-20T06:20:24.827Z,17.11
2019-05-20T06:22:53.316Z,16.90
2019-05-20T06:25:21.916Z,17.04
2019-05-20T06:27:50.342Z,17.51
2019-05-20T06:30:20.589Z,17.52
2019-05-20T06:32:49.036Z,17.30
2019-05-20T06:35:17.637Z,17.44
2019-05-20T06:37:50.606Z,17.36
2019-05-20T06:40:19.249Z,16.94
2019-05-20T06:42:47.670Z,17.13
2019-05-20T06:45:16.210Z,17.20
2019-05-20T06:47:44.658Z,17.23
2019-05-20T06:50:13.260Z,17.48
2019-05-20T06:52:41.755Z,17.48
2019-05-20T06:55:10.827Z,17.45
2019-05-20T06:57:39.290Z,17.09
2019-05-20T07:00:08.840Z,17.09
2019-05-20T07:02:37.316Z,17.47
2019-05-20T07:05:07.400Z,17.00
2019-05-20T07:07:35.895Z,17.34
2019-05-20T07:10:07.017Z,17.52
2019-05-20T07:12:41.091Z,17.57
2019-05-20T07:15:07.299Z,16.92
2019-05-20T07:17:35.743Z,17.36
2019-05-20T07:20:06.071Z,17.52
2019-05-20T07:22:34.564Z,17.25
2019-05-20T07:25:03.050Z,17.07
2019-05-20T07:27:31.539Z,17.07
2019-05-20T07:29:59.976Z,16.95
2019-05-20T07:32:28.446Z,16.83
2019-05-20T07:34:56.911Z,16.79
2019-05-20T07:37:25.410Z,17.32
2019-05-20T07:39:53.829Z,17.72
2019-05-20T07:42:22.253Z,17.75
2019-05-20T07:44:50.682Z,17.49
2019-05-20T07:47:19.475Z,17.69
2019-05-20T07:49:49.075Z,17.86
2019-05-20T07:52:17.879Z,17.90
2019-05-20T07:54:48.055Z,17.64
2019-05-20T07:57:18.742Z,17.26
2019-05-20T07:59:50.487Z,17.47
2019-05-20T08:02:19.192Z,17.14
2019-05-20T08:04:47.740Z,17.18
2019-05-20T08:07:27.601Z,17.29
2019-05-20T08:09:46.725Z,17.23
2019-05-20T08:12:15.291Z,17.26
2019-05-20T08:14:43.812Z,17.10
2019-05-20T08:17:12.317Z,16.90
2019-05-20T08:19:40.781Z,16.97
2019-05-20T08:22:09.239Z,17.45
2019-05-20T08:24:37.677Z,17.49
2019-05-20T08:27:06.205Z,17.40
2019-05-20T08:29:34.639Z,17.10
2019-05-20T08:32:03.167Z,17.06
2019-05-20T08:34:31.943Z,16.51
2019-05-20T08:37:00.518Z,16.93
2019-05-20T08:39:28.959Z,17.10
2019-05-20T08:41:57.501Z,17.51
2019-05-20T08:44:25.966Z,17.68
2019-05-20T08:46:54.496Z,18.07
2019-05-20T08:49:22.983Z,18.29
2019-05-20T08:51:51.674Z,18.13
2019-05-20T08:54:20.116Z,17.74
2019-05-20T08:56:49.408Z,17.53
2019-05-20T08:59:17.973Z,17.20
2019-05-20T09:01:46.410Z,17.25
2019-05-20T09:04:14.909Z,17.19
2019-05-20T09:06:43.358Z,17.20
2019-05-20T09:09:12.458Z,17.37
2019-05-20T09:11:41.031Z,17.31
2019-05-20T09:14:09.453Z,17.40
2019-05-20T09:16:37.982Z,17.54
2019-05-20T09:19:06.530Z,17.48
2019-05-20T09:21:35.026Z,17.39
2019-05-20T09:24:03.548Z,17.23
2019-05-20T09:26:32.006Z,17.47
2019-05-20T09:29:00.453Z,17.56
2019-05-20T09:31:29.162Z,17.26
2019-05-20T09:33:57.692Z,17.26
2019-05-20T09:36:26.188Z,17.59
2019-05-20T09:38:54.650Z,17.12
2019-05-20T09:41:23.132Z,17.53
2019-05-20T09:43:51.570Z,17.73
2019-05-20T09:46:20.016Z,17.98
2019-05-20T09:48:48.519Z,17.86
2019-05-20T09:51:16.941Z,17.49
2019-05-20T09:53:45.430Z,17.43
2019-05-20T09:56:13.959Z,17.24
2019-05-20T09:58:42.485Z,17.29
2019-05-20T10:01:11.066Z,17.71
2019-05-20T10:03:39.487Z,17.78
2019-05-20T10:06:07.983Z,17.88
2019-05-20T10:08:43.301Z,17.56
2019-05-20T10:11:06.613Z,18.16
2019-05-20T10:13:35.029Z,17.95
2019-05-20T10:16:03.549Z,18.02
2019-05-20T10:18:37.236Z,18.13
2019-05-20T10:21:02.187Z,18.37
2019-05-20T10:23:30.620Z,18.34
2019-05-20T10:25:59.101Z,17.75
2019-05-20T10:28:27.624Z,17.62
2019-05-20T10:30:56.166Z,17.62
2019-05-20T10:33:24.640Z,17.77
2019-05-20T10:35:53.123Z,17.89
2019-05-20T10:38:21.569Z,17.82
2019-05-20T10:40:50.054Z,17.27
2019-05-20T10:43:18.621Z,17.49
2019-05-20T10:45:47.098Z,17.25
2019-05-20T10:48:15.527Z,17.68
2019-05-20T10:50:43.995Z,17.73
2019-05-20T10:53:12.442Z,18.00
2019-05-20T10:55:40.919Z,17.81
2019-05-20T10:58:09.359Z,18.03
2019-05-20T11:00:37.942Z,17.61
2019-05-20T11:03:06.377Z,17.22
2019-05-20T11:05:34.853Z,17.51
2019-05-20T11:08:03.302Z,17.15
2019-05-20T11:10:31.812Z,17.34
2019-05-20T11:13:00.348Z,17.49
2019-05-20T11:15:28.783Z,17.70
2019-05-20T11:17:57.271Z,17.36
2019-05-20T11:20:25.825Z,17.75
2019-05-20T11:22:54.321Z,17.74
2019-05-20T11:25:22.753Z,17.48
2019-05-20T11:27:51.669Z,17.43
2019-05-20T11:30:20.555Z,17.68
2019-05-20T11:32:48.996Z,18.07
2019-05-20T11:35:17.692Z,17.89
2019-05-20T11:37:46.718Z,18.05
2019-05-20T11:40:15.669Z,18.13
2019-05-20T11:42:44.077Z,18.05
2019-05-20T11:45:12.672Z,18.03
2019-05-20T11:47:41.192Z,17.72
2019-05-20T11:50:10.717Z,17.54
2019-05-20T11:52:39.218Z,17.27
2019-05-20T11:55:09.152Z,17.08
2019-05-20T11:57:37.798Z,17.57
2019-05-20T12:00:08.235Z,17.86
2019-05-20T12:02:36.709Z,18.00
2019-05-20T12:05:07.126Z,17.79
2019-05-20T12:07:35.651Z,17.69
2019-05-20T12:10:08.897Z,17.87
2019-05-20T12:12:37.679Z,17.86
2019-05-20T12:15:08.716Z,18.14
2019-05-20T12:17:37.209Z,17.94
2019-05-20T12:20:11.842Z,18.39
2019-05-20T12:22:39.662Z,18.25
2019-05-20T12:25:09.313Z,18.11
2019-05-20T12:27:37.762Z,18.31
2019-05-20T12:30:09.014Z,17.86
2019-05-20T12:32:37.445Z,17.96
2019-05-20T12:35:08.022Z,18.00
2019-05-20T12:37:36.487Z,18.23
2019-05-20T12:40:08.338Z,18.28
2019-05-20T12:42:37.295Z,18.24
2019-05-20T12:45:07.328Z,18.51
2019-05-20T12:47:35.775Z,18.31
2019-05-20T12:50:05.142Z,18.66
2019-05-20T12:52:33.576Z,18.11
2019-05-20T12:55:07.742Z,18.77
2019-05-20T12:57:32.151Z,18.58
2019-05-20T13:00:00.609Z,18.28
2019-05-20T13:02:29.066Z,18.53
2019-05-20T13:04:57.491Z,18.61
2019-05-20T13:07:25.942Z,18.58
2019-05-20T13:09:54.379Z,18.62
2019-05-20T13:12:22.822Z,18.48
2019-05-20T13:14:56.037Z,18.04
2019-05-20T13:17:24.720Z,17.33
2019-05-20T13:19:56.094Z,18.49
2019-05-20T13:22:26.596Z,18.57
2019-05-20T13:24:56.991Z,18.78
2019-05-20T13:27:25.471Z,18.61
2019-05-20T13:29:53.995Z,18.07
2019-05-20T13:32:22.418Z,17.69
2019-05-20T13:34:51.217Z,18.58
2019-05-20T13:37:19.785Z,19.03
2019-05-20T13:39:48.322Z,19.06
2019-05-20T13:42:16.822Z,18.64
2019-05-20T13:44:45.283Z,18.76
2019-05-20T13:47:13.744Z,18.48
2019-05-20T13:49:42.197Z,18.27
2019-05-20T13:52:10.640Z,18.03
2019-05-20T13:54:39.083Z,18.15
2019-05-20T13:57:07.593Z,18.42
2019-05-20T13:59:36.079Z,18.65
2019-05-20T14:02:04.531Z,18.89
2019-05-20T14:04:32.993Z,18.69
2019-05-20T14:07:01.441Z,18.77
2019-05-20T14:09:29.894Z,19.24
2019-05-20T14:11:58.315Z,19.50
2019-05-20T14:14:26.800Z,19.23
2019-05-20T14:16:55.290Z,19.34
2019-05-20T14:19:23.712Z,19.20
2019-05-20T14:21:52.162Z,18.72
2019-05-20T14:24:20.701Z,18.80
2019-05-20T14:26:49.195Z,18.69
2019-05-20T14:29:17.646Z,18.75
2019-05-20T14:31:46.118Z,18.78
2019-05-20T14:34:14.553Z,18.89
2019-05-20T14:36:42.992Z,18.49
2019-05-20T14:39:11.436Z,18.23
2019-05-20T14:41:39.891Z,18.29
2019-05-20T14:44:08.396Z,18.52
2019-05-20T14:46:36.859Z,18.38
2019-05-20T14:49:05.288Z,18.06
2019-05-20T14:51:33.738Z,18.27
2019-05-20T14:54:02.176Z,18.33
2019-05-20T14:56:30.631Z,18.25
2019-05-20T14:58:59.067Z,18.48
2019-05-20T15:01:27.606Z,17.77
2019-05-20T15:03:56.014Z,18.13
2019-05-20T15:06:24.493Z,18.37
2019-05-20T15:08:52.944Z,18.38
2019-05-20T15:11:36.817Z,17.85
2019-05-20T15:13:51.570Z,18.16
2019-05-20T15:16:20.026Z,17.69
2019-05-20T15:18:48.453Z,18.15
2019-05-20T15:21:16.923Z,18.29
2019-05-20T15:23:45.391Z,18.08
2019-05-20T15:26:13.849Z,18.50
2019-05-20T15:28:42.349Z,18.32
2019-05-20T15:31:10.809Z,17.89
2019-05-20T15:33:39.219Z,18.24
2019-05-20T15:36:07.742Z,17.94
2019-05-20T15:38:36.174Z,18.17
2019-05-20T15:41:04.686Z,18.11
2019-05-20T15:43:33.132Z,18.18
2019-05-20T15:46:01.589Z,18.24
2019-05-20T15:48:30.032Z,18.27
2019-05-20T15:50:58.464Z,17.83
2019-05-20T15:53:26.978Z,18.22
2019-05-20T15:55:55.402Z,18.28
2019-05-20T15:58:24.137Z,18.32
2019-05-20T16:00:52.601Z,18.43
2019-05-20T16:03:23.987Z,18.66
2019-05-20T16:05:52.473Z,18.48
2019-05-20T16:08:20.932Z,18.71
2019-05-20T16:10:49.349Z,18.26
2019-05-20T16:13:17.845Z,18.36
2019-05-20T16:15:46.291Z,18.12
2019-05-20T16:18:14.772Z,18.43
2019-05-20T16:20:43.361Z,17.99
2019-05-20T16:23:11.881Z,17.91
2019-05-20T16:25:40.310Z,17.74
2019-05-20T16:28:08.755Z,18.06
2019-05-20T16:30:37.263Z,18.16
2019-05-20T16:33:05.910Z,18.05
2019-05-20T16:35:34.339Z,18.15
2019-05-20T16:38:02.765Z,18.01
2019-05-20T16:40:31.306Z,18.06
2019-05-20T16:42:59.732Z,18.14
2019-05-20T16:45:28.186Z,18.22
2019-05-20T16:47:56.649Z,18.28
2019-05-20T16:50:26.812Z,18.23
2019-05-20T16:52:55.235Z,17.85
2019-05-20T16:55:23.684Z,17.97
2019-05-20T16:57:52.251Z,17.61
2019-05-20T17:00:31.278Z,17.41
2019-05-20T17:02:51.033Z,17.89
2019-05-20T17:05:19.477Z,17.49
2019-05-20T17:07:47.930Z,18.07
2019-05-20T17:10:16.463Z,17.72
2019-05-20T17:12:44.920Z,17.81
2019-05-20T17:15:13.901Z,17.95
2019-05-20T17:17:42.370Z,17.98
2019-05-20T17:20:11.054Z,18.04
2019-05-20T17:22:39.494Z,17.76
2019-05-20T17:25:08.378Z,17.78
2019-05-20T17:27:36.991Z,17.77
2019-05-20T17:30:07.645Z,17.74
2019-05-20T17:32:36.085Z,18.21
2019-05-20T17:35:04.928Z,17.98
2019-05-20T17:37:33.390Z,18.18
2019-05-20T17:40:01.927Z,17.73
2019-05-20T17:42:30.532Z,17.60
2019-05-20T17:44:59.064Z,17.80
2019-05-20T17:47:27.684Z,18.00
2019-05-20T17:49:56.365Z,17.44
2019-05-20T17:52:24.821Z,17.57
2019-05-20T17:54:56.093Z,17.77
2019-05-20T17:57:24.526Z,17.62
2019-05-20T17:59:53.338Z,17.74
2019-05-20T18:02:21.799Z,17.69
2019-05-20T18:04:50.325Z,17.70
2019-05-20T18:07:18.761Z,17.64
2019-05-20T18:09:49.049Z,17.46
2019-05-20T18:12:17.540Z,17.48
2019-05-20T18:14:47.609Z,17.38
2019-05-20T18:17:16.031Z,17.69
2019-05-20T18:19:47.021Z,17.54
2019-05-20T18:22:15.026Z,17.71
2019-05-20T18:24:43.475Z,17.58
2019-05-20T18:27:13.501Z,17.41
2019-05-20T18:29:43.695Z,17.59
2019-05-20T18:32:13.734Z,17.58
2019-05-20T18:34:42.303Z,17.64
2019-05-20T18:37:10.797Z,17.81
2019-05-20T18:39:39.287Z,17.68
2019-05-20T18:42:09.410Z,17.49
2019-05-20T18:44:37.932Z,17.75
2019-05-20T18:47:08.490Z,17.94
2019-05-20T18:49:41.214Z,17.54
2019-05-20T18:52:14.805Z,17.69
2019-05-20T18:54:43.240Z,17.67
2019-05-20T18:57:11.743Z,17.53
2019-05-20T18:59:40.203Z,17.70
2019-05-20T19:02:12.189Z,17.74
2019-05-20T19:04:40.655Z,17.53
2019-05-20T19:07:09.171Z,17.47
2019-05-20T19:09:39.262Z,17.60
2019-05-20T19:12:09.332Z,17.40
2019-05-20T19:14:37.876Z,17.57
2019-05-20T19:17:06.450Z,17.64
2019-05-20T19:19:34.929Z,17.56
2019-05-20T19:22:03.360Z,17.43
2019-05-20T19:24:31.801Z,17.40
2019-05-20T19:27:00.239Z,17.29
2019-05-20T19:29:28.717Z,17.20
2019-05-20T19:32:01.809Z,17.42
2019-05-20T19:34:27.328Z,17.52
2019-05-20T19:36:58.680Z,17.55
2019-05-20T19:39:27.504Z,17.38
2019-05-20T19:41:55.974Z,17.00
2019-05-20T19:44:24.497Z,16.56
2019-05-20T19:46:52.937Z,17.04
2019-05-20T19:49:21.355Z,17.05
2019-05-20T19:51:49.805Z,17.00
2019-05-20T19:54:18.251Z,17.01
2019-05-20T19:56:46.729Z,16.94
2019-05-20T19:59:15.129Z,16.81
2019-05-20T20:01:43.611Z,17.09
2019-05-20T20:04:12.016Z,17.05
2019-05-20T20:06:40.511Z,17.16
2019-05-20T20:09:08.972Z,17.39
2019-05-20T20:11:37.416Z,17.37
2019-05-20T20:14:05.849Z,17.19
2019-05-20T20:16:34.297Z,16.91
2019-05-20T20:19:02.753Z,16.60
2019-05-20T20:21:31.183Z,17.22
2019-05-20T20:23:59.618Z,16.96
2019-05-20T20:26:28.084Z,16.93
2019-05-20T20:28:56.518Z,16.96
2019-05-20T20:31:24.978Z,16.65
2019-05-20T20:33:53.438Z,17.13
2019-05-20T20:36:21.874Z,16.65
2019-05-20T20:38:50.328Z,16.54
2019-05-20T20:41:18.833Z,16.80
2019-05-20T20:43:47.276Z,16.56
2019-05-20T20:46:15.716Z,16.76
2019-05-20T20:48:44.155Z,16.67
2019-05-20T20:51:12.607Z,16.67
2019-05-20T20:53:41.028Z,16.65
2019-05-20T20:56:24.090Z,16.64
2019-05-20T20:58:39.639Z,16.60
2019-05-20T21:01:08.092Z,16.67
2019-05-20T21:03:36.510Z,16.40
2019-05-20T21:06:05.045Z,16.46
2019-05-20T21:08:33.482Z,16.28
2019-05-20T21:11:01.966Z,16.46
2019-05-20T21:13:30.369Z,16.30
2019-05-20T21:15:58.807Z,16.08
2019-05-20T21:18:27.298Z,16.54
2019-05-20T21:20:55.784Z,16.27
2019-05-20T21:23:24.213Z,16.52
2019-05-20T21:25:52.643Z,16.56
2019-05-20T21:28:21.118Z,16.50
2019-05-20T21:30:49.561Z,16.10
2019-05-20T21:33:18.068Z,16.10
2019-05-20T21:35:46.511Z,15.96
2019-05-20T21:38:14.980Z,16.30
2019-05-20T21:40:43.392Z,15.95
2019-05-20T21:43:11.858Z,16.12
2019-05-20T21:45:40.336Z,16.15
2019-05-20T21:48:08.840Z,16.09
2019-05-20T21:50:37.305Z,16.28
2019-05-20T21:53:05.718Z,16.32
2019-05-20T21:55:34.154Z,16.03
2019-05-20T21:58:03.625Z,16.39
2019-05-20T22:00:45.657Z,16.23
2019-05-20T22:03:23.875Z,15.70
2019-05-20T22:05:44.317Z,15.95
2019-05-20T22:08:18.844Z,16.07
2019-05-20T22:10:46.541Z,15.73
2019-05-20T22:13:15.008Z,15.90
2019-05-20T22:15:43.517Z,15.41
2019-05-20T22:18:12.000Z,15.56
2019-05-20T22:20:40.420Z,15.79
2019-05-20T22:23:16.243Z,15.55
2019-05-20T22:25:46.675Z,15.71
2019-05-20T22:28:15.106Z,15.56
2019-05-20T22:30:43.538Z,15.63
2019-05-20T22:33:40.528Z,15.62
2019-05-20T22:35:57.217Z,15.54
2019-05-20T22:38:25.671Z,15.87
2019-05-20T22:40:54.123Z,15.75
2019-05-20T22:43:22.583Z,15.44
2019-05-20T22:45:51.007Z,15.35
2019-05-20T22:48:19.458Z,15.20
2019-05-20T22:50:48.865Z,15.34
2019-05-20T22:53:17.481Z,15.37
2019-05-20T22:55:45.894Z,15.23
2019-05-20T22:58:14.354Z,15.56
2019-05-20T23:00:42.775Z,15.53
2019-05-20T23:03:11.229Z,15.50
2019-05-20T23:05:39.673Z,15.47
2019-05-20T23:08:08.139Z,15.51
2019-05-20T23:10:36.605Z,15.08
2019-05-20T23:13:05.019Z,15.49
2019-05-20T23:15:33.469Z,15.24
2019-05-20T23:18:01.913Z,15.21
2019-05-20T23:20:30.452Z,15.21
2019-05-20T23:22:58.926Z,15.07
2019-05-20T23:25:27.364Z,15.10
2019-05-20T23:27:55.803Z,15.07
2019-05-20T23:30:24.262Z,15.13
2019-05-20T23:32:52.686Z,14.76
2019-05-20T23:35:21.140Z,14.92
2019-05-20T23:37:49.578Z,14.91
2019-05-20T23:40:18.062Z,14.74
2019-05-20T23:42:46.485Z,14.82
2019-05-20T23:45:15.078Z,14.55
2019-05-20T23:47:43.521Z,14.71
2019-05-20T23:50:12.687Z,14.87
2019-05-20T23:52:41.174Z,14.84
2019-05-20T23:55:10.073Z,14.74
2019-05-20T23:57:38.496Z,14.51
